Time;durP1;ratioP1;P1;durP2;ratioP2;P2;SDS_P1;SDS_P2;PMS_P1;PMS_P2;Temp;Humidity;BMP_temperature;BMP_pressure;BME280_temperature;BME280_humidity;BME280_pressure;Samples;Min_cycle;Max_cycle;Signal;HPM_P1;HPM_P2
2023/01/06 00:02:09;;;;;;;4.07;3.70;;;;;;;8.78;73.93;98411.47;5052041;28;20252;-60
2023/01/06 00:04:35;;;;;;;4.28;3.70;;;;;;;8.44;74.27;98356.91;5052527;28;20258;-60
2023/01/06 00:07:00;;;;;;;6.25;4.32;;;;;;;8.87;74.60;98416.09;5052103;28;20257;-60
2023/01/06 00:09:25;;;;;;;6.72;4.35;;;;;;;8.62;74.14;98384.94;5052070;28;20525;-60
2023/01/06 00:11:51;;;;;;;5.03;3.92;;;;;;;8.93;74.55;98432.94;5051984;28;20182;-60
2023/01/06 00:14:16;;;;;;;3.75;3.38;;;;;;;8.96;74.87;98441.31;5051607;28;20205;-60
2023/01/06 00:16:42;;;;;;;4.07;3.65;;;;;;;8.58;74.75;98380.94;5051917;28;20268;-60
2023/01/06 00:19:10;;;;;;;4.13;3.75;;;;;;;9.01;75.10;98456.50;5052478;28;20264;-60
2023/01/06 00:21:35;;;;;;;5.03;3.47;;;;;;;9.03;74.72;98450.31;5051886;28;20188;-60
2023/01/06 00:24:01;;;;;;;4.50;3.65;;;;;;;9.05;75.02;98453.66;5051875;28;20276;-60
2023/01/06 00:26:26;;;;;;;4.80;3.65;;;;;;;8.79;75.38;98409.75;5052191;28;20261;-60
2023/01/06 00:28:53;;;;;;;4.07;3.70;;;;;;;8.85;75.38;98417.09;5051838;28;20570;-60
2023/01/06 00:31:19;;;;;;;5.75;4.40;;;;;;;9.28;71.23;98478.88;5051534;28;20182;-60
2023/01/06 00:33:44;;;;;;;5.57;3.60;;;;;;;9.39;70.49;98466.09;5052446;28;20232;-60
2023/01/06 00:36:11;;;;;;;7.20;4.28;;;;;;;9.18;71.08;98417.56;5053203;28;20183;-60
2023/01/06 00:38:37;;;;;;;4.95;4.05;;;;;;;9.33;71.33;98445.00;5055775;28;20178;-60
2023/01/06 00:42:02;;;;;;;5.85;4.25;;;;;;;9.22;71.85;98435.38;5055164;28;20253;-60
2023/01/06 00:43:56;;;;;;;5.75;4.80;;;;;;;9.12;72.07;98421.38;5055033;28;20177;-60
2023/01/06 00:46:22;;;;;;;4.28;3.78;;;;;;;9.43;72.66;98477.91;5055316;28;20173;-60
2023/01/06 00:48:47;;;;;;;4.78;3.90;;;;;;;9.13;72.98;98420.44;5055320;28;20188;-60
2023/01/06 00:51:13;;;;;;;4.32;3.67;;;;;;;9.20;72.93;98424.28;5055240;28;20604;-60
2023/01/06 00:53:38;;;;;;;4.35;3.72;;;;;;;9.13;72.51;98417.88;5055972;28;20258;-60
2023/01/06 00:56:04;;;;;;;5.30;4.35;;;;;;;9.43;71.99;98477.91;5055776;28;20231;-60
2023/01/06 00:58:31;;;;;;;5.63;4.00;;;;;;;9.10;72.24;98441.28;5055884;28;20174;-60
2023/01/06 01:00:56;;;;;;;6.38;4.13;;;;;;;9.50;71.57;98494.66;5055601;28;20170;-60
2023/01/06 01:03:22;;;;;;;3.45;2.95;;;;;;;9.66;68.36;98500.53;5054743;28;20169;-60
2023/01/06 01:05:47;;;;;;;4.00;3.60;;;;;;;9.39;68.58;98442.84;5055238;28;20219;-60
2023/01/06 01:08:12;;;;;;;4.40;3.70;;;;;;;9.87;68.28;98479.31;5055494;28;20181;-60
2023/01/06 01:10:38;;;;;;;5.22;3.28;;;;;;;10.17;65.61;98492.03;5054945;28;20650;-60
2023/01/06 01:13:03;;;;;;;3.60;2.80;;;;;;;10.23;64.75;98481.28;5054795;28;20307;-60
2023/01/06 01:15:30;;;;;;;3.67;3.38;;;;;;;10.59;63.88;98509.88;5054802;28;20177;-60
2023/01/06 01:17:55;;;;;;;3.63;3.30;;;;;;;10.50;63.13;98451.81;5054847;28;20202;-60
2023/01/06 01:20:20;;;;;;;3.85;3.45;;;;;;;10.77;62.16;98454.28;5054481;28;20651;-60
2023/01/06 01:22:46;;;;;;;3.40;3.08;;;;;;;11.19;61.98;98506.53;5055445;28;20239;-60
2023/01/06 01:25:11;;;;;;;4.40;3.78;;;;;;;11.25;62.00;98510.44;5054653;28;20170;-60
2023/01/06 01:27:36;;;;;;;3.97;3.50;;;;;;;11.08;61.87;98461.63;5055099;28;20174;-60
2023/01/06 01:30:03;;;;;;;3.92;3.53;;;;;;;11.43;61.23;98525.53;5072305;28;20278;-60
2023/01/06 01:32:28;;;;;;;4.10;3.10;;;;;;;11.34;60.97;98500.31;5072116;28;20707;-60
2023/01/06 01:34:53;;;;;;;3.63;3.33;;;;;;;11.09;60.89;98458.91;5072826;28;20193;-60
2023/01/06 01:37:19;;;;;;;3.75;2.92;;;;;;;11.23;61.14;98470.88;5072355;28;20180;-60
2023/01/06 01:39:44;;;;;;;4.95;3.20;;;;;;;11.56;61.03;98510.78;5072546;28;20185;-60
2023/01/06 01:42:17;;;;;;;4.65;3.30;;;;;;;11.27;61.34;98472.34;5071984;28;20276;-60
2023/01/06 01:44:51;;;;;;;3.30;3.00;;;;;;;11.57;60.91;98522.00;5072016;28;20575;-60
2023/01/06 01:47:25;;;;;;;4.40;3.03;;;;;;;11.68;60.74;98524.69;5072276;28;20556;-60
2023/01/06 01:49:54;;;;;;;3.35;3.05;;;;;;;11.65;60.96;98519.72;5071933;28;20741;-60
2023/01/06 01:52:21;;;;;;;3.25;2.83;;;;;;;11.30;61.63;98485.06;5051885;28;20615;-60
2023/01/06 01:54:48;;;;;;;3.50;3.20;;;;;;;11.38;61.45;98486.19;5051955;28;20701;-60
2023/01/06 01:57:18;;;;;;;3.90;3.60;;;;;;;11.64;62.08;98538.78;5051923;28;20307;-60
2023/01/06 01:59:45;;;;;;;3.47;3.13;;;;;;;11.32;62.35;98480.63;5051672;28;20178;-60
2023/01/06 02:02:13;;;;;;;4.05;3.65;;;;;;;11.62;62.62;98514.75;5032163;28;20194;-60
2023/01/06 02:04:41;;;;;;;3.20;3.00;;;;;;;11.44;62.86;98479.75;5031694;28;20175;-60
2023/01/06 02:07:07;;;;;;;3.50;3.20;;;;;;;11.45;62.92;98476.22;5032359;28;20191;-60
2023/01/06 02:09:49;;;;;;;4.65;3.38;;;;;;;11.60;63.35;98499.31;5031560;28;20223;-60
2023/01/06 02:12:15;;;;;;;3.20;2.90;;;;;;;11.53;63.39;98492.88;5031631;28;20668;-60
2023/01/06 02:14:40;;;;;;;5.78;3.03;;;;;;;11.49;63.47;98455.16;5031831;28;20241;-60
2023/01/06 02:17:16;;;;;;;3.13;2.92;;;;;;;11.57;63.40;98476.19;5031373;28;20645;-60
2023/01/06 02:20:09;;;;;;;3.47;3.17;;;;;;;11.90;63.51;98528.22;5031399;28;20174;-60
2023/01/06 02:23:05;;;;;;;3.45;3.15;;;;;;;11.86;63.88;98513.84;5036294;28;20594;-60
2023/01/06 02:25:31;;;;;;;2.92;2.72;;;;;;;11.95;63.18;98510.56;5054017;28;20264;-60
2023/01/06 02:28:11;;;;;;;2.85;2.65;;;;;;;12.02;62.88;98524.75;5053438;28;20201;-60
2023/01/06 02:31:10;;;;;;;3.40;3.10;;;;;;;11.94;62.55;98489.94;5053439;28;20692;-60
2023/01/06 02:33:43;;;;;;;3.97;3.53;;;;;;;11.75;62.90;98453.31;5054012;28;20206;-60
2023/01/06 02:36:22;;;;;;;3.55;3.25;;;;;;;12.00;63.15;98512.81;5053380;28;20174;-60
2023/01/06 02:38:56;;;;;;;4.25;3.42;;;;;;;11.71;62.83;98441.50;5053853;28;20238;-60
2023/01/06 02:41:36;;;;;;;4.43;2.90;;;;;;;12.12;62.57;98498.94;5053498;28;20195;-60
2023/01/06 02:44:11;;;;;;;3.47;3.05;;;;;;;12.09;62.52;98499.19;5052880;28;20670;-60
2023/01/06 02:46:58;;;;;;;4.22;2.92;;;;;;;12.11;62.24;98477.41;5052846;28;20186;-60
2023/01/06 02:49:41;;;;;;;3.03;2.72;;;;;;;12.24;61.32;98462.56;5053587;28;20239;-60
2023/01/06 02:52:19;;;;;;;3.80;3.10;;;;;;;11.87;61.79;98413.53;5053587;28;20174;-60
2023/01/06 02:55:10;;;;;;;2.72;2.53;;;;;;;12.35;61.42;98459.16;5052912;28;20185;-60
2023/01/06 02:57:38;;;;;;;3.38;3.08;;;;;;;12.44;61.23;98442.91;5053490;28;20173;-60
2023/01/06 03:00:13;;;;;;;3.13;2.75;;;;;;;12.13;60.91;98374.34;5052262;28;20177;-60
2023/01/06 03:02:41;;;;;;;2.53;2.33;;;;;;;12.55;60.53;98461.13;5052783;28;20187;-60
2023/01/06 03:05:10;;;;;;;3.00;2.03;;;;;;;12.63;60.53;98443.19;5052766;28;20208;-60
2023/01/06 03:07:38;;;;;;;2.33;2.13;;;;;;;12.46;60.79;98381.34;5052727;28;20268;-60
2023/01/06 03:10:06;;;;;;;2.55;1.98;;;;;;;12.46;61.28;98371.81;5053018;28;20231;-60
2023/01/06 03:12:44;;;;;;;1.83;1.73;;;;;;;12.84;60.86;98411.19;5053076;28;20212;-60
2023/01/06 03:15:10;;;;;;;1.60;1.48;;;;;;;12.94;61.54;98401.75;5052659;28;20223;-60
2023/01/06 03:17:35;;;;;;;1.48;1.33;;;;;;;12.89;61.10;98397.88;5052871;28;20177;-60
2023/01/06 03:20:01;;;;;;;1.85;1.75;;;;;;;12.71;60.93;98357.75;5052587;28;20181;-60
2023/01/06 03:22:27;;;;;;;1.80;1.70;;;;;;;13.01;61.42;98396.94;5053045;28;20231;-60
2023/01/06 03:24:53;;;;;;;0.98;0.98;;;;;;;13.08;61.47;98382.53;5052460;28;20585;-60
2023/01/06 03:27:23;;;;;;;1.20;1.10;;;;;;;13.17;60.81;98384.38;5052448;28;20224;-60
2023/01/06 03:29:48;;;;;;;1.77;1.50;;;;;;;12.77;60.12;98305.34;5053299;28;20618;-60
2023/01/06 03:32:37;;;;;;;2.13;1.85;;;;;;;13.23;59.31;98381.28;5052571;28;20189;-60
2023/01/06 03:35:21;;;;;;;1.90;1.80;;;;;;;13.26;59.19;98373.25;5052363;28;20201;-60
2023/01/06 03:37:58;;;;;;;1.50;1.40;;;;;;;13.22;59.00;98375.28;5052370;28;20170;-60
2023/01/06 03:40:29;;;;;;;1.90;1.80;;;;;;;13.27;59.00;98377.50;5052685;28;20165;-60
2023/01/06 03:43:15;;;;;;;1.33;1.33;;;;;;;12.94;58.20;98338.56;5052346;28;20169;-60
2023/01/06 03:46:01;;;;;;;1.50;1.40;;;;;;;13.30;58.21;98395.47;5052881;28;20169;-60
2023/01/06 03:48:29;;;;;;;2.28;2.05;;;;;;;13.22;59.04;98401.28;5052614;28;20296;-60
2023/01/06 03:50:55;;;;;;;1.67;1.58;;;;;;;13.13;59.34;98394.19;5051969;28;20177;-60
2023/01/06 03:53:48;;;;;;;2.35;1.60;;;;;;;12.98;60.54;98402.38;5051821;28;20201;-60
2023/01/06 03:56:31;;;;;;;1.63;1.52;;;;;;;12.80;61.48;98408.97;5052785;28;20177;-60
2023/01/06 03:59:01;;;;;;;1.05;1.05;;;;;;;12.85;59.97;98373.09;5052179;28;20173;-60
2023/01/06 04:01:28;;;;;;;1.13;1.10;;;;;;;12.89;60.43;98390.09;5052729;28;20177;-60
2023/01/06 04:03:55;;;;;;;2.80;1.40;;;;;;;12.97;60.28;98405.91;5052142;28;20170;-60
2023/01/06 04:06:21;;;;;;;1.40;1.30;;;;;;;12.92;60.62;98400.22;5051776;28;20182;-60
2023/01/06 04:08:47;;;;;;;1.35;1.30;;;;;;;12.68;60.32;98365.78;5052608;28;20174;-60
2023/01/06 04:12:37;;;;;;;2.38;1.33;;;;;;;12.73;60.61;98393.00;5055268;28;20182;-60
2023/01/06 04:13:58;;;;;;;1.38;1.27;;;;;;;12.61;61.35;98399.16;5055666;28;20208;-60
2023/01/06 04:16:23;;;;;;;1.33;1.23;;;;;;;12.57;59.77;98392.56;5056306;28;20170;-60
2023/01/06 04:18:49;;;;;;;1.95;1.65;;;;;;;12.65;59.19;98407.56;5056456;28;20173;-60
2023/01/06 04:21:14;;;;;;;1.80;1.70;;;;;;;12.57;59.61;98407.31;5055865;28;20178;-60
2023/01/06 04:23:40;;;;;;;1.45;1.38;;;;;;;12.59;59.90;98424.41;5055514;28;20181;-60
2023/01/06 04:26:05;;;;;;;1.55;1.45;;;;;;;12.52;59.56;98419.81;5055759;28;20216;-60
2023/01/06 04:28:30;;;;;;;1.70;1.60;;;;;;;12.48;59.70;98408.84;5055701;28;20645;-60
2023/01/06 04:30:57;;;;;;;2.22;1.92;;;;;;;12.46;59.72;98415.91;5055713;28;20205;-60
2023/01/06 04:33:22;;;;;;;2.97;2.13;;;;;;;12.44;60.21;98422.97;5056527;28;20296;-60
2023/01/06 04:35:48;;;;;;;2.03;1.92;;;;;;;12.66;60.63;98479.31;5055833;28;20205;-60
2023/01/06 04:38:13;;;;;;;2.20;2.08;;;;;;;12.56;61.04;98496.50;5055785;28;20679;-60
2023/01/06 04:40:40;;;;;;;2.30;2.05;;;;;;;12.32;61.44;98459.41;5055498;28;20181;-60
2023/01/06 04:43:06;;;;;;;4.10;2.22;;;;;;;12.44;61.47;98485.25;5055768;28;20189;-60
2023/01/06 04:45:33;;;;;;;2.67;2.13;;;;;;;12.41;61.66;98500.22;5055916;28;20265;-60
2023/01/06 04:47:58;;;;;;;2.35;2.15;;;;;;;12.26;62.00;98465.88;5055425;28;20173;-60
2023/01/06 04:50:24;;;;;;;5.18;2.75;;;;;;;12.14;62.38;98465.97;5055834;28;20184;-60
2023/01/06 04:52:49;;;;;;;4.63;3.22;;;;;;;12.37;62.59;98528.16;5055207;28;20193;-60
2023/01/06 04:55:15;;;;;;;5.13;3.00;;;;;;;12.13;62.92;98485.06;5052927;28;20193;-60
2023/01/06 04:57:41;;;;;;;3.35;2.58;;;;;;;11.99;63.12;98480.06;5053623;28;20213;-60
2023/01/06 05:00:06;;;;;;;2.67;2.47;;;;;;;12.13;63.05;98516.19;5052940;28;20266;-60
2023/01/06 05:02:32;;;;;;;2.38;1.95;;;;;;;11.99;62.92;98488.66;5052663;28;20178;-60
2023/01/06 05:04:58;;;;;;;3.00;2.25;;;;;;;12.16;62.97;98521.16;5053142;28;20182;-60
2023/01/06 05:07:23;;;;;;;2.13;2.00;;;;;;;12.21;63.01;98540.63;5053211;28;20178;-60
2023/01/06 05:09:48;;;;;;;2.72;2.53;;;;;;;11.91;62.96;98492.75;5052682;28;20186;-60
2023/01/06 05:12:14;;;;;;;3.50;2.33;;;;;;;11.90;63.14;98504.06;5052552;28;20243;-60
2023/01/06 05:14:39;;;;;;;2.53;2.33;;;;;;;12.04;63.33;98542.78;5052649;28;20209;-60
2023/01/06 05:17:05;;;;;;;2.70;2.50;;;;;;;11.76;63.39;98492.09;5053038;28;20177;-60
2023/01/06 05:19:30;;;;;;;2.03;1.85;;;;;;;11.68;62.78;98494.41;5052388;28;20277;-60
2023/01/06 05:21:56;;;;;;;2.65;2.45;;;;;;;12.02;63.44;98555.84;5052299;28;20210;-60
2023/01/06 05:24:21;;;;;;;2.30;2.20;;;;;;;11.81;62.91;98522.88;5052291;28;20671;-60
2023/01/06 05:26:46;;;;;;;2.20;2.10;;;;;;;11.53;63.01;98495.47;5054554;28;20186;-60
2023/01/06 05:29:15;;;;;;;3.88;2.20;;;;;;;12.01;63.12;98571.56;5054561;28;20178;-60
2023/01/06 05:31:41;;;;;;;3.28;2.28;;;;;;;11.99;63.73;98568.22;5054157;28;20204;-60
2023/01/06 05:34:06;;;;;;;2.72;2.42;;;;;;;11.26;62.98;98455.97;5054761;28;20190;-60
2023/01/06 05:36:32;;;;;;;3.25;2.30;;;;;;;11.91;63.11;98581.72;5054165;28;20169;-60
2023/01/06 05:38:57;;;;;;;3.97;2.50;;;;;;;11.91;63.45;98589.50;5054391;28;20174;-60
2023/01/06 05:41:22;;;;;;;2.58;2.38;;;;;;;11.82;62.95;98564.25;5054658;28;20260;-60
2023/01/06 05:43:48;;;;;;;2.80;2.20;;;;;;;11.80;63.33;98573.88;5054289;28;20181;-60
2023/01/06 05:46:13;;;;;;;2.47;2.28;;;;;;;11.57;62.77;98538.38;5054230;28;20198;-60
2023/01/06 05:48:39;;;;;;;2.40;2.20;;;;;;;11.56;62.82;98535.88;5054534;28;20178;-60
2023/01/06 05:51:13;;;;;;;4.38;2.55;;;;;;;11.46;63.53;98540.88;5053851;28;20651;-60
2023/01/06 05:53:41;;;;;;;2.20;2.10;;;;;;;11.20;62.11;98502.19;5053810;28;20288;-60
2023/01/06 05:56:08;;;;;;;2.95;2.13;;;;;;;11.54;61.30;98566.25;5053763;28;20652;-60
2023/01/06 05:58:35;;;;;;;2.22;2.03;;;;;;;11.79;61.05;98589.56;5054002;28;20251;-61
2023/01/06 06:01:02;;;;;;;2.42;2.22;;;;;;;11.81;61.35;98623.97;5053928;28;20200;-61
2023/01/06 06:03:27;;;;;;;2.72;2.08;;;;;;;11.52;61.53;98575.91;5053964;28;20686;-60
2023/01/06 06:05:53;;;;;;;2.65;2.00;;;;;;;11.46;61.36;98591.88;5053854;28;20174;-60
2023/01/06 06:08:18;;;;;;;2.20;2.00;;;;;;;11.66;61.83;98635.41;5054175;28;20576;-60
2023/01/06 06:10:44;;;;;;;2.45;2.25;;;;;;;11.44;60.41;98602.34;5054105;28;20173;-60
2023/01/06 06:13:10;;;;;;;2.10;2.00;;;;;;;11.60;60.13;98620.28;5053612;28;20342;-60
2023/01/06 06:15:35;;;;;;;3.22;2.10;;;;;;;11.25;60.59;98570.88;5053714;28;20173;-60
2023/01/06 06:18:02;;;;;;;2.25;2.00;;;;;;;11.55;59.66;98636.13;5053669;28;20173;-60
2023/01/06 06:20:27;;;;;;;2.40;1.70;;;;;;;11.65;59.24;98649.28;5053654;28;20180;-60
2023/01/06 06:22:53;;;;;;;2.55;2.13;;;;;;;11.48;58.91;98621.09;5053835;28;20169;-60
2023/01/06 06:25:18;;;;;;;1.80;1.70;;;;;;;11.70;58.17;98655.00;5053613;28;20169;-60
2023/01/06 06:27:44;;;;;;;1.70;1.60;;;;;;;11.68;57.62;98644.72;5053473;28;20181;-60
2023/01/06 06:30:09;;;;;;;1.90;1.80;;;;;;;11.53;58.15;98606.06;5053927;28;20181;-60
2023/01/06 06:32:35;;;;;;;1.95;1.70;;;;;;;11.37;58.11;98570.00;5053185;28;20272;-60
2023/01/06 06:35:00;;;;;;;4.45;2.00;;;;;;;11.64;57.51;98638.13;5052893;28;20173;-60
2023/01/06 06:37:25;;;;;;;3.25;2.20;;;;;;;11.36;57.69;98591.69;5053308;28;20528;-60
2023/01/06 06:39:51;;;;;;;1.75;1.65;;;;;;;11.93;57.73;98683.59;5053188;28;20180;-60
2023/01/06 06:42:16;;;;;;;1.85;1.73;;;;;;;11.67;57.00;98637.06;5052520;28;20174;-59
2023/01/06 06:44:41;;;;;;;1.38;1.38;;;;;;;11.69;56.38;98632.59;5053276;28;20538;-60
2023/01/06 06:47:07;;;;;;;2.60;1.55;;;;;;;11.93;56.18;98680.16;5053236;28;20173;-60
2023/01/06 06:49:32;;;;;;;2.65;1.60;;;;;;;11.69;56.46;98635.19;5053108;28;20690;-59
2023/01/06 06:51:58;;;;;;;1.85;1.70;;;;;;;11.78;55.89;98639.75;5053016;28;20177;-60
2023/01/06 06:54:23;;;;;;;2.65;2.10;;;;;;;12.05;56.30;98689.66;5053231;28;20297;-60
2023/01/06 06:56:48;;;;;;;2.33;1.63;;;;;;;12.06;56.20;98699.94;5053187;28;20197;-60
2023/01/06 06:59:14;;;;;;;3.60;1.90;;;;;;;11.55;55.94;98625.75;5053006;28;20695;-60
2023/01/06 07:01:39;;;;;;;1.77;1.67;;;;;;;12.03;55.97;98691.56;5053200;28;20200;-60
2023/01/06 07:04:05;;;;;;;2.35;1.80;;;;;;;12.21;56.23;98717.03;5052813;28;20181;-60
2023/01/06 07:06:30;;;;;;;2.38;1.88;;;;;;;11.91;56.21;98650.94;5053075;28;20178;-60
2023/01/06 07:08:56;;;;;;;1.83;1.52;;;;;;;11.99;55.84;98665.00;5053506;28;20170;-60
2023/01/06 07:11:22;;;;;;;1.88;1.77;;;;;;;12.21;55.90;98690.25;5053177;28;20174;-60
2023/01/06 07:13:48;;;;;;;1.67;1.58;;;;;;;11.92;55.47;98647.38;5052277;28;20271;-60
2023/01/06 07:16:13;;;;;;;2.25;2.00;;;;;;;11.99;55.92;98656.38;5052826;28;20184;-60
2023/01/06 07:18:39;;;;;;;2.67;2.00;;;;;;;11.96;55.82;98646.25;5052672;28;20189;-60
2023/01/06 07:21:05;;;;;;;2.63;1.58;;;;;;;12.08;55.67;98679.91;5052263;28;20182;-60
2023/01/06 07:23:31;;;;;;;1.88;1.77;;;;;;;12.37;55.71;98712.41;5053324;28;20177;-60
2023/01/06 07:25:58;;;;;;;1.83;1.67;;;;;;;11.83;55.90;98625.53;5053000;28;20543;-60
2023/01/06 07:28:25;;;;;;;2.33;1.50;;;;;;;12.41;55.50;98719.03;5052447;28;20223;-60
2023/01/06 07:30:51;;;;;;;1.60;1.50;;;;;;;12.10;55.50;98666.84;5052473;28;20209;-60
2023/01/06 07:33:18;;;;;;;1.65;1.55;;;;;;;12.18;55.94;98664.53;5052874;28;20551;-60
2023/01/06 07:35:43;;;;;;;1.90;1.80;;;;;;;12.06;55.54;98649.81;5052441;28;20204;-60
2023/01/06 07:38:09;;;;;;;1.80;1.70;;;;;;;12.17;55.49;98661.13;5052348;28;20169;-60
2023/01/06 07:40:35;;;;;;;3.72;1.80;;;;;;;12.18;55.54;98648.97;5052565;28;20537;-60
2023/01/06 07:43:05;;;;;;;4.75;1.80;;;;;;;12.42;55.55;98688.75;5052133;28;20268;-60
2023/01/06 07:45:31;;;;;;;1.75;1.63;;;;;;;12.52;55.07;98692.31;5051990;28;20188;-60
2023/01/06 07:47:56;;;;;;;1.98;1.85;;;;;;;12.04;54.28;98607.63;5052279;28;20170;-60
2023/01/06 07:50:22;;;;;;;2.33;2.10;;;;;;;12.44;54.27;98679.06;5052234;28;20227;-60
2023/01/06 07:52:47;;;;;;;3.42;1.40;;;;;;;12.30;53.70;98648.06;5052655;28;20178;-60
2023/01/06 07:55:13;;;;;;;4.03;1.35;;;;;;;12.71;53.62;98726.44;5051930;28;20206;-60
2023/01/06 07:57:38;;;;;;;2.05;1.60;;;;;;;12.61;53.03;98704.66;5052173;28;20227;-60
2023/01/06 08:00:04;;;;;;;1.50;1.40;;;;;;;12.66;53.10;98699.97;5052235;28;20178;-60
2023/01/06 08:02:29;;;;;;;3.75;1.77;;;;;;;11.99;53.30;98610.56;5052215;28;20174;-60
2023/01/06 08:04:55;;;;;;;1.90;1.80;;;;;;;12.79;53.09;98729.28;5052176;28;20260;-60
2023/01/06 08:07:20;;;;;;;1.70;1.60;;;;;;;12.90;52.83;98743.13;5051586;28;20181;-60
2023/01/06 08:09:45;;;;;;;1.50;1.38;;;;;;;12.49;51.66;98669.19;5052634;28;20178;-60
2023/01/06 08:12:11;;;;;;;1.50;1.40;;;;;;;12.47;51.93;98660.66;5052019;28;20628;-60
2023/01/06 08:14:37;;;;;;;1.20;1.20;;;;;;;12.75;51.08;98715.69;5052013;28;20198;-60
2023/01/06 08:17:02;;;;;;;1.90;1.50;;;;;;;13.08;51.49;98762.59;5052071;28;20170;-60
2023/01/06 08:19:28;;;;;;;1.92;1.27;;;;;;;13.06;51.12;98748.09;5051654;28;20260;-60
2023/01/06 08:21:53;;;;;;;1.75;1.65;;;;;;;12.59;50.89;98690.94;5052654;28;20189;-60
2023/01/06 08:24:18;;;;;;;2.03;1.80;;;;;;;13.09;50.94;98759.09;5051934;28;20209;-59
2023/01/06 08:26:44;;;;;;;1.90;1.48;;;;;;;12.91;49.91;98733.59;5051880;28;20173;-59
2023/01/06 08:29:09;;;;;;;2.35;1.70;;;;;;;13.20;50.17;98785.13;5052411;28;20174;-59
2023/01/06 08:31:34;;;;;;;2.42;2.03;;;;;;;13.30;50.67;98809.47;5051796;28;20173;-59
2023/01/06 08:34:00;;;;;;;1.40;1.30;;;;;;;13.17;49.68;98767.16;5052112;28;20205;-60
2023/01/06 08:36:26;;;;;;;1.35;1.33;;;;;;;13.44;49.51;98791.13;5051867;28;20616;-60
2023/01/06 08:38:52;;;;;;;1.50;1.40;;;;;;;13.00;49.32;98723.38;5051525;28;20178;-59
2023/01/06 08:41:18;;;;;;;2.55;1.27;;;;;;;13.15;48.69;98731.81;5051995;28;20197;-59
2023/01/06 08:43:45;;;;;;;1.58;1.42;;;;;;;13.53;48.59;98779.22;5051517;28;20554;-60
2023/01/06 08:46:13;;;;;;;1.38;1.38;;;;;;;13.66;48.08;98795.53;5051680;28;20189;-59
2023/01/06 08:48:39;;;;;;;2.83;1.52;;;;;;;13.41;48.34;98749.75;5051750;28;20170;-60
2023/01/06 08:51:07;;;;;;;1.75;1.55;;;;;;;13.43;48.72;98736.63;5051653;28;20181;-60
2023/01/06 08:53:33;;;;;;;2.40;1.90;;;;;;;13.42;48.29;98734.97;5052423;28;20536;-60
2023/01/06 08:55:58;;;;;;;1.27;1.27;;;;;;;13.46;48.54;98726.00;5051629;28;20185;-60
2023/01/06 08:58:24;;;;;;;3.45;1.50;;;;;;;13.43;48.05;98726.25;5054834;28;20174;-60
2023/01/06 09:00:50;;;;;;;2.35;1.60;;;;;;;13.75;48.39;98777.47;5055971;28;20623;-60
2023/01/06 09:03:15;;;;;;;1.25;1.20;;;;;;;13.53;48.09;98709.00;5055081;28;20671;-60
2023/01/06 09:05:40;;;;;;;1.58;1.48;;;;;;;13.54;48.21;98697.66;5055088;28;20185;-60
2023/01/06 09:08:06;;;;;;;1.92;1.58;;;;;;;13.66;47.74;98705.34;5055302;28;20236;-60
2023/01/06 09:10:31;;;;;;;2.72;1.98;;;;;;;13.86;48.47;98716.81;5055484;28;20173;-60
2023/01/06 09:12:57;;;;;;;2.67;1.60;;;;;;;13.83;47.42;98715.28;5055432;28;20559;-60
2023/01/06 09:15:23;;;;;;;2.97;1.20;;;;;;;13.95;46.90;98729.13;5054875;28;20165;-60
2023/01/06 09:17:48;;;;;;;1.83;1.45;;;;;;;13.75;47.25;98690.81;5054860;28;20617;-60
2023/01/06 09:20:13;;;;;;;1.20;1.10;;;;;;;13.77;46.01;98694.13;5054822;28;20248;-60
2023/01/06 09:22:39;;;;;;;1.63;1.33;;;;;;;14.11;46.00;98734.81;5054486;28;20180;-60
2023/01/06 09:25:05;;;;;;;1.88;1.10;;;;;;;13.82;45.59;98694.63;5055341;28;20162;-60
2023/01/06 09:27:30;;;;;;;1.33;1.20;;;;;;;13.87;45.62;98698.50;5054642;28;20189;-60
2023/01/06 09:29:55;;;;;;;1.80;1.70;;;;;;;14.00;45.64;98714.00;5054430;28;20249;-60
2023/01/06 09:32:21;;;;;;;1.15;1.10;;;;;;;14.25;44.81;98742.41;5054428;28;20702;-60
2023/01/06 09:34:47;;;;;;;1.98;1.27;;;;;;;14.27;44.97;98735.28;5054812;28;20264;-60
2023/01/06 09:37:12;;;;;;;1.98;1.25;;;;;;;14.30;45.03;98724.66;5054512;28;20632;-60
2023/01/06 09:39:38;;;;;;;1.38;1.10;;;;;;;14.48;44.58;98741.44;5054461;28;20276;-60
2023/01/06 09:42:15;;;;;;;2.78;1.35;;;;;;;14.27;43.94;98688.44;5054372;28;20174;-60
2023/01/06 09:44:52;;;;;;;1.23;1.13;;;;;;;14.22;44.03;98682.78;5055012;28;20197;-60
2023/01/06 09:47:23;;;;;;;3.10;1.50;;;;;;;14.23;43.57;98692.25;5054380;28;20213;-60
2023/01/06 09:50:00;;;;;;;1.30;1.02;;;;;;;14.34;43.49;98698.25;5054013;28;20164;-60
2023/01/06 09:52:37;;;;;;;1.08;1.00;;;;;;;14.67;43.40;98744.22;5054573;28;20257;-60
2023/01/06 09:55:18;;;;;;;0.80;0.80;;;;;;;14.73;43.30;98730.72;5054734;28;20193;-60
2023/01/06 09:57:51;;;;;;;1.15;1.05;;;;;;;14.52;42.71;98693.38;5054187;28;20256;-60
2023/01/06 10:00:19;;;;;;;2.58;1.10;;;;;;;14.83;42.48;98742.91;5054691;28;20166;-60
2023/01/06 10:02:44;;;;;;;0.80;0.80;;;;;;;14.59;42.30;98689.31;5054866;28;20212;-60
2023/01/06 10:05:21;;;;;;;2.67;1.27;;;;;;;14.55;42.34;98701.78;5054036;28;20209;-60
2023/01/06 10:07:57;;;;;;;1.27;1.17;;;;;;;14.68;42.81;98725.03;5053470;28;20188;-60
2023/01/06 10:10:55;;;;;;;0.95;0.95;;;;;;;14.65;42.82;98707.06;5054453;28;20166;-60
2023/01/06 10:13:39;;;;;;;1.00;1.00;;;;;;;14.80;42.38;98724.03;5054619;28;20201;-60
2023/01/06 10:16:15;;;;;;;1.50;1.30;;;;;;;14.79;41.92;98706.78;5054369;28;20589;-60
2023/01/06 10:19:09;;;;;;;1.10;1.10;;;;;;;14.61;42.17;98666.59;5053793;28;20182;-60
2023/01/06 10:22:06;;;;;;;1.05;1.00;;;;;;;14.80;42.26;98708.41;5053640;28;20178;-60
2023/01/06 10:24:50;;;;;;;1.60;1.45;;;;;;;14.77;41.93;98688.69;5031567;28;20198;-60
2023/01/06 10:27:25;;;;;;;1.65;1.52;;;;;;;14.81;41.68;98684.84;5031309;28;20663;-60
2023/01/06 10:29:53;;;;;;;2.75;1.77;;;;;;;14.68;42.37;98683.38;5031310;28;20178;-60
2023/01/06 10:32:20;;;;;;;3.20;2.30;;;;;;;14.66;41.91;98670.50;5031499;28;20276;-60
2023/01/06 10:34:48;;;;;;;3.78;2.65;;;;;;;14.26;42.31;98596.53;5031299;28;20711;-60
2023/01/06 10:37:22;;;;;;;3.58;2.72;;;;;;;14.69;42.37;98664.19;5031162;28;20170;-60
2023/01/06 10:39:53;;;;;;;4.90;2.75;;;;;;;14.44;42.84;98617.63;5031890;28;20613;-60
2023/01/06 10:42:58;;;;;;;4.07;3.28;;;;;;;14.73;42.65;98661.22;5031613;28;20175;-60
2023/01/06 10:45:37;;;;;;;5.13;3.78;;;;;;;14.60;42.73;98634.53;5029140;28;20625;-60
2023/01/06 10:48:06;;;;;;;4.43;3.33;;;;;;;14.66;42.59;98646.22;5029856;28;20163;-60
2023/01/06 10:50:33;;;;;;;4.95;3.58;;;;;;;14.64;42.87;98632.50;5031051;28;20201;-60
2023/01/06 10:52:59;;;;;;;4.53;3.35;;;;;;;15.07;42.12;98683.56;5029724;28;20683;-60
2023/01/06 10:55:25;;;;;;;4.80;3.00;;;;;;;15.13;42.20;98679.63;5042508;28;20186;-60
2023/01/06 10:57:51;;;;;;;3.40;2.60;;;;;;;14.90;41.30;98621.59;5053044;28;20181;-60
2023/01/06 11:00:21;;;;;;;3.78;3.05;;;;;;;15.26;41.75;98664.59;5053006;28;20169;-60
2023/01/06 11:02:54;;;;;;;4.43;3.00;;;;;;;15.08;41.13;98617.44;5052890;28;20665;-60
2023/01/06 11:05:23;;;;;;;4.30;3.00;;;;;;;15.15;40.58;98610.78;5053710;28;20158;-60
2023/01/06 11:07:56;;;;;;;10.10;3.17;;;;;;;15.46;40.49;98653.38;5053383;28;20181;-60
2023/01/06 11:10:52;;;;;;;5.47;2.92;;;;;;;15.44;40.80;98652.66;5053421;28;20162;-60
2023/01/06 11:13:25;;;;;;;3.70;2.92;;;;;;;15.40;41.23;98639.06;5030618;28;20206;-60
2023/01/06 11:15:52;;;;;;;3.67;3.22;;;;;;;15.19;40.98;98620.00;5030756;28;20185;-60
2023/01/06 11:18:26;;;;;;;5.50;3.00;;;;;;;15.16;40.54;98596.78;5030982;28;20191;-59
2023/01/06 11:21:01;;;;;;;3.63;2.83;;;;;;;15.32;40.43;98636.28;5029971;28;20539;-60
2023/01/06 11:23:27;;;;;;;4.22;3.22;;;;;;;15.45;41.04;98649.94;5030307;28;20718;-60
2023/01/06 11:26:11;;;;;;;4.68;3.70;;;;;;;15.52;40.23;98645.84;5030279;28;20554;-60
2023/01/06 11:28:41;;;;;;;3.78;2.53;;;;;;;15.28;39.91;98610.56;5030439;28;20198;-60
2023/01/06 11:31:14;;;;;;;5.18;2.92;;;;;;;15.39;40.08;98640.03;5030254;28;20189;-60
2023/01/06 11:33:51;;;;;;;2.70;2.45;;;;;;;15.42;39.96;98650.22;5030229;28;20218;-61
2023/01/06 11:36:19;;;;;;;4.18;2.90;;;;;;;15.35;40.57;98643.03;5030485;28;20679;-60
2023/01/06 11:38:51;;;;;;;6.35;3.17;;;;;;;15.13;39.99;98599.66;5030309;28;20233;-60
2023/01/06 11:41:26;;;;;;;3.92;3.25;;;;;;;15.52;40.05;98650.25;5030205;28;20166;-60
2023/01/06 11:43:55;;;;;;;4.97;3.30;;;;;;;15.56;39.84;98636.00;5039251;28;20207;-60